createdAt,value
2022-08-25T00:01:28.389Z,17.52
2022-08-25T00:03:59.652Z,17.50
2022-08-25T00:06:31.068Z,17.44
2022-08-25T00:08:59.984Z,17.42
2022-08-25T00:11:31.742Z,17.44
2022-08-25T00:14:04.799Z,17.45
2022-08-25T00:16:33.568Z,17.41
2022-08-25T00:19:04.144Z,17.44
2022-08-25T00:21:32.744Z,17.40
2022-08-25T00:24:03.061Z,17.45
2022-08-25T00:26:34.146Z,17.44
2022-08-25T00:29:06.024Z,17.44
2022-08-25T00:31:38.755Z,17.41
2022-08-25T00:34:09.641Z,17.41
2022-08-25T00:36:38.401Z,17.41
2022-08-25T00:39:07.555Z,17.47
2022-08-25T00:41:36.388Z,17.45
2022-08-25T00:44:08.934Z,17.48
2022-08-25T00:46:39.776Z,17.50
2022-08-25T00:49:16.366Z,17.04
2022-08-25T00:51:55.910Z,17.50
2022-08-25T00:54:27.326Z,17.49
2022-08-25T00:56:56.705Z,17.51
2022-08-25T00:59:27.208Z,17.58
2022-08-25T01:01:56.209Z,17.62
2022-08-25T01:04:24.649Z,17.63
2022-08-25T01:06:53.240Z,17.62
2022-08-25T01:09:21.510Z,17.62
2022-08-25T01:11:49.765Z,17.63
2022-08-25T01:14:20.743Z,17.61
2022-08-25T01:16:51.140Z,17.62
2022-08-25T01:19:22.274Z,17.63
2022-08-25T01:21:52.884Z,17.45
2022-08-25T01:24:26.406Z,17.65
2022-08-25T01:26:54.667Z,17.67
2022-08-25T01:29:25.311Z,17.65
2022-08-25T01:31:57.837Z,17.67
2022-08-25T01:34:27.086Z,17.61
2022-08-25T01:36:57.307Z,17.68
2022-08-25T01:39:26.297Z,17.69
2022-08-25T01:42:35.252Z,17.73
2022-08-25T01:45:03.381Z,17.75
2022-08-25T01:47:32.148Z,17.27
2022-08-25T01:50:00.391Z,17.76
2022-08-25T01:52:35.226Z,17.74
2022-08-25T01:55:03.430Z,17.65
2022-08-25T01:57:32.441Z,17.66
2022-08-25T02:00:01.797Z,17.65
2022-08-25T02:02:31.663Z,17.62
2022-08-25T02:05:01.159Z,17.63
2022-08-25T02:07:30.687Z,17.56
2022-08-25T02:09:59.076Z,17.64
2022-08-25T02:12:34.307Z,17.68
2022-08-25T02:15:02.895Z,17.52
2022-08-25T02:17:31.207Z,17.68
2022-08-25T02:19:59.532Z,17.68
2022-08-25T02:22:28.906Z,17.69
2022-08-25T02:24:58.456Z,17.73
2022-08-25T02:27:26.578Z,17.71
2022-08-25T02:29:54.773Z,17.57
2022-08-25T02:32:23.185Z,17.81
2022-08-25T02:34:51.528Z,17.81
2022-08-25T02:37:20.603Z,17.77
2022-08-25T02:39:48.839Z,17.76
2022-08-25T02:42:18.431Z,17.77
2022-08-25T02:44:46.596Z,17.73
2022-08-25T02:47:14.777Z,17.77
2022-08-25T02:49:43.080Z,17.79
2022-08-25T02:52:11.253Z,17.80
2022-08-25T02:54:39.428Z,17.82
2022-08-25T02:57:07.763Z,17.86
2022-08-25T02:59:37.387Z,17.89
2022-08-25T03:02:06.034Z,17.92
2022-08-25T03:04:34.301Z,17.94
2022-08-25T03:07:03.299Z,17.98
2022-08-25T03:09:31.564Z,17.99
2022-08-25T03:12:02.469Z,18.02
2022-08-25T03:14:30.600Z,18.06
2022-08-25T03:17:00.245Z,18.03
2022-08-25T03:19:28.476Z,18.10
2022-08-25T03:21:57.658Z,18.08
2022-08-25T03:24:25.972Z,18.12
2022-08-25T03:26:56.046Z,18.11
2022-08-25T03:29:25.970Z,18.11
2022-08-25T03:31:55.537Z,18.14
2022-08-25T03:34:27.841Z,18.10
2022-08-25T03:36:58.087Z,17.89
2022-08-25T03:39:27.467Z,18.06
2022-08-25T03:41:55.676Z,18.07
2022-08-25T03:44:23.998Z,18.08
2022-08-25T03:46:53.619Z,18.12
2022-08-25T03:49:25.486Z,18.12
2022-08-25T03:51:55.140Z,18.16
2022-08-25T03:54:25.431Z,18.16
2022-08-25T03:56:53.902Z,18.13
2022-08-25T03:59:22.452Z,18.21
2022-08-25T04:01:54.871Z,17.99
2022-08-25T04:04:25.514Z,18.21
2022-08-25T04:06:54.178Z,18.19
2022-08-25T04:09:22.527Z,18.23
2022-08-25T04:11:53.135Z,18.28
2022-08-25T04:14:23.548Z,18.31
2022-08-25T04:16:53.038Z,18.29
2022-08-25T04:19:22.075Z,18.29
2022-08-25T04:21:51.944Z,18.31
2022-08-25T04:24:25.101Z,18.35
2022-08-25T04:26:53.345Z,18.35
2022-08-25T04:29:23.537Z,18.38
2022-08-25T04:31:52.701Z,18.12
2022-08-25T04:34:30.555Z,18.34
2022-08-25T04:37:03.024Z,18.35
2022-08-25T04:39:31.652Z,18.39
2022-08-25T04:42:00.806Z,18.21
2022-08-25T04:44:30.003Z,18.39
2022-08-25T04:46:58.213Z,18.37
2022-08-25T04:49:26.571Z,18.40
2022-08-25T04:51:56.591Z,18.47
2022-08-25T04:54:26.377Z,18.47
2022-08-25T04:56:58.633Z,18.50
2022-08-25T04:59:29.899Z,18.56
2022-08-25T05:02:02.635Z,18.61
2022-08-25T05:04:32.777Z,18.66
2022-08-25T05:07:02.781Z,18.67
2022-08-25T05:09:33.081Z,18.70
2022-08-25T05:12:02.324Z,18.71
2022-08-25T05:14:31.431Z,18.75
2022-08-25T05:17:00.165Z,18.78
2022-08-25T05:19:28.583Z,18.83
2022-08-25T05:21:58.010Z,18.85
2022-08-25T05:24:28.011Z,18.87
2022-08-25T05:26:58.421Z,18.90
2022-08-25T05:29:27.079Z,18.70
2022-08-25T05:31:55.909Z,18.88
2022-08-25T05:34:24.928Z,18.88
2022-08-25T05:36:53.199Z,18.88
2022-08-25T05:39:21.509Z,18.85
2022-08-25T05:41:49.822Z,18.22
2022-08-25T05:44:21.330Z,18.90
2022-08-25T05:46:51.294Z,18.90
2022-08-25T05:49:19.889Z,18.90
2022-08-25T05:51:48.192Z,18.96
2022-08-25T05:54:16.523Z,18.96
2022-08-25T05:56:45.501Z,18.97
2022-08-25T05:59:13.862Z,18.99
2022-08-25T06:02:01.827Z,19.04
2022-08-25T06:04:39.576Z,19.07
2022-08-25T06:07:09.363Z,19.09
2022-08-25T06:09:42.084Z,18.90
2022-08-25T06:12:11.324Z,19.13
2022-08-25T06:14:40.247Z,19.15
2022-08-25T06:17:10.768Z,19.05
2022-08-25T06:19:41.229Z,19.22
2022-08-25T06:22:12.526Z,19.23
2022-08-25T06:24:40.807Z,19.20
2022-08-25T06:27:09.337Z,19.18
2022-08-25T06:29:38.271Z,19.02
2022-08-25T06:32:06.859Z,19.21
2022-08-25T06:34:37.054Z,19.12
2022-08-25T06:37:05.593Z,19.15
2022-08-25T06:39:38.697Z,19.20
2022-08-25T06:42:07.462Z,19.19
2022-08-25T06:44:36.438Z,19.18
2022-08-25T06:47:04.874Z,19.18
2022-08-25T06:49:36.199Z,19.15
2022-08-25T06:52:06.846Z,19.16
2022-08-25T06:54:35.162Z,19.11
2022-08-25T06:57:04.559Z,19.13
2022-08-25T06:59:35.664Z,18.91
2022-08-25T07:02:05.368Z,19.14
2022-08-25T07:04:34.643Z,19.15
2022-08-25T07:07:04.227Z,19.14
2022-08-25T07:09:38.588Z,19.10
2022-08-25T07:12:08.343Z,18.96
2022-08-25T07:14:37.093Z,18.96
2022-08-25T07:17:12.052Z,19.05
2022-08-25T07:19:41.171Z,19.12
2022-08-25T07:22:09.536Z,19.17
2022-08-25T07:24:39.126Z,19.18
2022-08-25T07:27:07.664Z,19.27
2022-08-25T07:29:42.191Z,19.12
2022-08-25T07:32:10.966Z,19.31
2022-08-25T07:34:56.649Z,19.31
2022-08-25T07:37:47.885Z,19.33
2022-08-25T07:40:18.079Z,19.13
2022-08-25T07:42:46.579Z,19.37
2022-08-25T07:45:15.482Z,19.43
2022-08-25T07:47:46.031Z,19.48
2022-08-25T07:50:14.762Z,19.60
2022-08-25T07:52:43.085Z,19.62
2022-08-25T07:55:12.099Z,19.56
2022-08-25T07:57:50.903Z,19.57
2022-08-25T08:00:24.750Z,19.53
2022-08-25T08:02:52.999Z,19.60
2022-08-25T08:05:23.815Z,19.63
2022-08-25T08:07:53.936Z,19.45
2022-08-25T08:13:17.704Z,19.79
2022-08-25T08:15:47.472Z,19.92
2022-08-25T08:18:16.098Z,19.98
2022-08-25T08:20:46.130Z,20.00
2022-08-25T08:23:14.430Z,19.96
2022-08-25T08:25:42.583Z,19.90
2022-08-25T08:28:12.319Z,19.89
2022-08-25T08:30:53.372Z,20.04
2022-08-25T08:33:24.407Z,20.02
2022-08-25T08:35:59.221Z,20.05
2022-08-25T08:38:27.890Z,20.04
2022-08-25T08:41:22.937Z,19.96
2022-08-25T08:43:57.782Z,20.16
2022-08-25T08:46:29.392Z,20.28
2022-08-25T08:49:03.435Z,20.39
2022-08-25T08:51:33.596Z,20.38
2022-08-25T08:54:15.683Z,20.23
2022-08-25T08:56:48.634Z,20.38
2022-08-25T08:59:21.549Z,20.37
2022-08-25T09:01:54.601Z,20.19
2022-08-25T09:04:31.258Z,20.22
2022-08-25T09:07:05.060Z,20.12
2022-08-25T09:09:35.655Z,20.33
2022-08-25T09:12:11.741Z,20.32
2022-08-25T09:14:54.019Z,20.40
2022-08-25T09:17:32.845Z,20.26
2022-08-25T09:20:20.495Z,20.38
2022-08-25T09:22:54.118Z,20.38
2022-08-25T09:25:48.662Z,20.40
2022-08-25T09:28:40.681Z,20.39
2022-08-25T09:31:17.101Z,20.36
2022-08-25T09:33:45.341Z,20.28
2022-08-25T09:36:15.020Z,20.58
2022-08-25T09:38:43.598Z,20.64
2022-08-25T09:41:12.183Z,20.79
2022-08-25T09:43:44.689Z,20.80
2022-08-25T09:46:16.504Z,20.96
2022-08-25T09:48:56.098Z,21.10
2022-08-25T09:51:27.562Z,21.18
2022-08-25T09:53:58.381Z,21.32
2022-08-25T09:56:28.897Z,21.31
2022-08-25T09:59:03.076Z,21.44
2022-08-25T10:01:34.940Z,21.63
2022-08-25T10:04:06.688Z,21.85
2022-08-25T10:06:48.913Z,22.35
2022-08-25T10:09:30.608Z,22.71
2022-08-25T10:12:01.504Z,23.08
2022-08-25T10:14:44.348Z,23.29
2022-08-25T10:17:27.727Z,23.75
2022-08-25T10:20:18.337Z,24.27
2022-08-25T10:22:50.307Z,24.54
2022-08-25T10:25:26.057Z,24.62
2022-08-25T10:28:00.939Z,24.10
2022-08-25T10:30:32.983Z,23.70
2022-08-25T10:33:12.698Z,23.33
2022-08-25T10:35:49.593Z,22.77
2022-08-25T10:38:36.264Z,22.50
2022-08-25T10:41:24.977Z,22.22
2022-08-25T10:43:58.722Z,22.14
2022-08-25T10:46:31.336Z,22.08
2022-08-25T10:49:05.386Z,22.01
2022-08-25T10:51:45.985Z,21.92
2022-08-25T10:54:28.376Z,21.94
2022-08-25T10:57:08.145Z,21.95
2022-08-25T10:59:57.315Z,21.88
2022-08-25T11:02:51.008Z,21.90
2022-08-25T11:05:28.261Z,22.02
2022-08-25T11:08:04.988Z,21.96
2022-08-25T11:10:40.074Z,21.83
2022-08-25T11:13:14.202Z,21.67
2022-08-25T11:16:06.579Z,21.68
2022-08-25T11:18:36.006Z,21.61
2022-08-25T11:21:10.630Z,21.85
2022-08-25T11:23:42.643Z,21.87
2022-08-25T11:26:12.944Z,21.88
2022-08-25T11:28:50.822Z,21.89
2022-08-25T11:31:20.295Z,22.05
2022-08-25T11:33:50.577Z,22.15
2022-08-25T11:36:29.357Z,22.14
2022-08-25T11:39:09.325Z,22.16
2022-08-25T11:41:43.554Z,22.24
2022-08-25T11:44:33.880Z,22.33
2022-08-25T11:47:21.553Z,22.52
2022-08-25T11:49:56.830Z,22.66
2022-08-25T11:52:51.055Z,22.88
2022-08-25T11:55:23.126Z,22.71
2022-08-25T11:57:53.724Z,22.76
2022-08-25T12:00:41.338Z,22.63
2022-08-25T12:03:46.252Z,22.91
2022-08-25T12:06:36.586Z,23.17
2022-08-25T12:09:21.264Z,23.35
2022-08-25T12:11:58.449Z,23.26
2022-08-25T12:14:48.026Z,23.57
2022-08-25T12:17:29.615Z,23.51
2022-08-25T12:20:00.144Z,23.49
2022-08-25T12:22:53.408Z,23.60
2022-08-25T12:25:51.512Z,23.77
2022-08-25T12:28:46.795Z,23.77
2022-08-25T12:31:27.530Z,23.85
2022-08-25T12:34:08.311Z,23.66
2022-08-25T12:36:40.904Z,23.90
2022-08-25T12:39:24.405Z,24.25
2022-08-25T12:44:42.388Z,25.08
2022-08-25T12:47:31.936Z,25.63
2022-08-25T12:50:34.112Z,25.88
2022-08-25T12:53:11.337Z,26.09
2022-08-25T12:55:45.514Z,25.75
2022-08-25T12:58:15.082Z,25.75
2022-08-25T13:01:01.668Z,25.88
2022-08-25T13:03:55.712Z,26.04
2022-08-25T13:06:40.365Z,25.86
2022-08-25T13:09:29.722Z,25.83
2022-08-25T13:12:05.716Z,26.41
2022-08-25T13:14:39.466Z,26.43
2022-08-25T13:17:09.589Z,26.26
2022-08-25T13:19:38.428Z,26.52
2022-08-25T13:22:16.240Z,26.73
2022-08-25T13:27:29.007Z,27.08
2022-08-25T13:30:03.556Z,27.15
2022-08-25T13:32:35.410Z,27.26
2022-08-25T13:35:14.375Z,26.92
2022-08-25T13:37:42.263Z,26.46
2022-08-25T13:40:12.786Z,26.27
2022-08-25T13:42:42.573Z,26.23
2022-08-25T13:45:18.132Z,26.01
2022-08-25T13:47:47.436Z,26.03
2022-08-25T13:50:22.663Z,26.17
2022-08-25T13:52:52.719Z,25.77
2022-08-25T13:55:22.827Z,26.21
2022-08-25T13:57:56.792Z,26.59
2022-08-25T14:00:36.000Z,26.18
2022-08-25T14:03:12.832Z,26.10
2022-08-25T14:05:45.612Z,26.26
2022-08-25T14:08:32.387Z,26.16
2022-08-25T14:11:15.085Z,26.38
2022-08-25T14:13:44.669Z,26.63
2022-08-25T14:16:17.535Z,26.79
2022-08-25T14:18:50.691Z,26.99
2022-08-25T14:21:20.886Z,26.96
2022-08-25T14:23:49.488Z,26.91
2022-08-25T14:26:18.189Z,26.83
2022-08-25T14:28:46.633Z,26.85
2022-08-25T14:31:37.274Z,26.95
2022-08-25T14:34:09.680Z,27.19
2022-08-25T14:36:41.006Z,27.31
2022-08-25T14:39:10.678Z,27.36
2022-08-25T14:41:42.023Z,27.41
2022-08-25T14:44:11.672Z,27.43
2022-08-25T14:46:47.285Z,27.47
2022-08-25T14:49:24.987Z,27.22
2022-08-25T14:51:55.547Z,27.26
2022-08-25T14:54:27.972Z,26.94
2022-08-25T14:56:58.048Z,26.82
2022-08-25T14:59:27.294Z,26.71
2022-08-25T15:01:57.281Z,26.83
2022-08-25T15:04:28.623Z,26.91
2022-08-25T15:06:59.093Z,27.15
2022-08-25T15:09:33.383Z,27.14
2022-08-25T15:12:03.429Z,26.87
2022-08-25T15:14:34.286Z,27.01
2022-08-25T15:17:05.128Z,26.82
2022-08-25T15:19:36.500Z,26.64
2022-08-25T15:22:05.220Z,26.41
2022-08-25T15:24:37.774Z,26.58
2022-08-25T15:27:10.198Z,26.51
2022-08-25T15:29:38.857Z,26.43
2022-08-25T15:32:09.909Z,26.45
2022-08-25T15:34:38.876Z,26.66
2022-08-25T15:37:09.309Z,26.82
2022-08-25T15:39:37.695Z,26.91
2022-08-25T15:42:06.506Z,26.62
2022-08-25T15:44:34.954Z,26.62
2022-08-25T15:47:04.399Z,26.79
2022-08-25T15:49:34.878Z,26.70
2022-08-25T15:52:03.429Z,26.63
2022-08-25T15:54:31.832Z,26.60
2022-08-25T15:57:00.589Z,26.70
2022-08-25T15:59:29.486Z,26.94
2022-08-25T16:01:57.990Z,27.06
2022-08-25T16:04:28.730Z,27.18
2022-08-25T16:06:59.601Z,27.18
2022-08-25T16:09:28.887Z,26.99
2022-08-25T16:12:04.049Z,26.57
2022-08-25T16:14:34.932Z,26.66
2022-08-25T16:17:03.374Z,26.75
2022-08-25T16:19:31.818Z,26.75
2022-08-25T16:22:02.094Z,26.65
2022-08-25T16:24:30.508Z,26.45
2022-08-25T16:27:11.771Z,26.37
2022-08-25T16:29:40.939Z,26.28
2022-08-25T16:32:10.386Z,26.26
2022-08-25T16:34:39.432Z,26.09
2022-08-25T16:37:09.218Z,25.50
2022-08-25T16:39:44.394Z,25.80
2022-08-25T16:42:13.642Z,25.45
2022-08-25T16:44:42.198Z,25.33
2022-08-25T16:47:10.878Z,25.11
2022-08-25T16:49:42.436Z,24.86
2022-08-25T16:52:30.609Z,24.50
2022-08-25T16:55:15.260Z,24.49
2022-08-25T16:57:47.546Z,24.17
2022-08-25T17:00:18.711Z,23.95
2022-08-25T17:02:47.795Z,23.67
2022-08-25T17:05:16.860Z,23.30
2022-08-25T17:08:08.926Z,23.09
2022-08-25T17:10:39.730Z,22.92
2022-08-25T17:13:08.996Z,22.80
2022-08-25T17:15:42.101Z,22.56
2022-08-25T17:18:12.903Z,22.52
2022-08-25T17:20:43.562Z,22.50
2022-08-25T17:23:14.012Z,22.44
2022-08-25T17:25:43.587Z,22.23
2022-08-25T17:28:13.058Z,22.19
2022-08-25T17:30:41.853Z,22.09
2022-08-25T17:33:10.034Z,21.87
2022-08-25T17:35:40.284Z,21.71
2022-08-25T17:38:08.808Z,21.86
2022-08-25T17:40:39.200Z,21.90
2022-08-25T17:43:09.709Z,21.80
2022-08-25T17:45:39.084Z,21.77
2022-08-25T17:48:08.876Z,21.64
2022-08-25T17:50:39.232Z,21.50
2022-08-25T17:53:07.643Z,21.37
2022-08-25T17:55:40.257Z,21.26
2022-08-25T18:10:24.367Z,20.92
2022-08-25T18:12:57.630Z,20.88
2022-08-25T18:15:26.074Z,20.72
2022-08-25T18:17:59.632Z,20.71
2022-08-25T18:20:28.751Z,20.67
2022-08-25T18:22:58.848Z,20.67
2022-08-25T18:25:29.299Z,20.58
2022-08-25T18:27:59.339Z,20.46
2022-08-25T18:30:29.355Z,20.39
2022-08-25T18:35:51.339Z,20.24
2022-08-25T18:38:37.500Z,20.07
2022-08-25T18:41:07.974Z,20.13
2022-08-25T18:43:38.466Z,20.20
2022-08-25T18:46:09.208Z,20.20
2022-08-25T18:48:38.692Z,20.16
2022-08-25T18:51:10.436Z,20.09
2022-08-25T18:53:50.340Z,20.00
2022-08-25T18:56:20.141Z,19.99
2022-08-25T18:58:50.177Z,19.90
2022-08-25T19:01:21.451Z,19.78
2022-08-25T19:03:50.837Z,19.69
2022-08-25T19:06:20.899Z,19.58
2022-08-25T19:08:52.515Z,19.66
2022-08-25T19:11:22.449Z,19.67
2022-08-25T19:13:52.771Z,19.67
2022-08-25T19:16:32.889Z,19.58
2022-08-25T19:19:03.860Z,19.53
2022-08-25T19:21:32.947Z,19.52
2022-08-25T19:24:01.399Z,19.49
2022-08-25T19:26:33.388Z,19.54
2022-08-25T19:29:04.088Z,19.42
2022-08-25T19:31:33.590Z,19.43
2022-08-25T19:34:03.292Z,19.42
2022-08-25T19:36:32.189Z,19.38
2022-08-25T19:39:02.517Z,19.27
2022-08-25T19:41:32.527Z,19.26
2022-08-25T19:44:04.037Z,19.34
2022-08-25T19:46:38.513Z,19.30
2022-08-25T19:49:12.820Z,19.23
2022-08-25T19:51:43.846Z,19.21
2022-08-25T19:54:15.223Z,19.12
2022-08-25T19:56:54.943Z,19.19
2022-08-25T19:59:34.369Z,19.24
2022-08-25T20:02:15.128Z,19.18
2022-08-25T20:04:49.134Z,19.12
2022-08-25T20:07:19.107Z,19.18
2022-08-25T20:09:48.885Z,19.16
2022-08-25T20:12:18.435Z,19.11
2022-08-25T20:14:51.859Z,19.10
2022-08-25T20:17:24.694Z,19.05
2022-08-25T20:19:57.436Z,19.03
2022-08-25T20:22:27.039Z,18.93
2022-08-25T20:24:58.652Z,19.04
2022-08-25T20:27:30.640Z,19.06
2022-08-25T20:30:02.569Z,19.10
2022-08-25T20:32:34.096Z,19.03
2022-08-25T20:35:03.391Z,19.08
2022-08-25T20:37:33.791Z,18.95
2022-08-25T20:40:02.534Z,19.05
2022-08-25T20:42:31.332Z,18.98
2022-08-25T20:45:01.193Z,18.88
2022-08-25T20:47:30.018Z,18.79
2022-08-25T20:50:04.529Z,18.80
2022-08-25T20:52:35.085Z,18.68
2022-08-25T20:55:03.753Z,18.79
2022-08-25T20:57:33.407Z,18.66
2022-08-25T21:00:04.866Z,18.69
2022-08-25T21:02:33.538Z,18.73
2022-08-25T21:05:03.628Z,18.62
2022-08-25T21:07:32.118Z,18.58
2022-08-25T21:10:06.634Z,18.59
2022-08-25T21:12:39.071Z,18.64
2022-08-25T21:15:18.486Z,18.62
2022-08-25T21:17:50.564Z,18.58
2022-08-25T21:20:19.192Z,18.44
2022-08-25T21:22:48.357Z,18.59
2022-08-25T21:25:18.856Z,18.58
2022-08-25T21:27:48.085Z,18.51
2022-08-25T21:30:19.743Z,18.55
2022-08-25T21:32:53.751Z,18.53
2022-08-25T21:35:23.339Z,18.44
2022-08-25T21:37:53.313Z,18.45
2022-08-25T21:40:22.825Z,18.46
2022-08-25T21:42:51.439Z,18.36
2022-08-25T21:45:21.968Z,18.41
2022-08-25T21:47:51.900Z,18.38
2022-08-25T21:50:21.256Z,18.38
2022-08-25T21:52:54.576Z,18.32
2022-08-25T21:55:23.874Z,18.30
2022-08-25T21:57:53.185Z,18.20
2022-08-25T22:00:24.147Z,17.89
2022-08-25T22:02:53.008Z,18.25
2022-08-25T22:05:21.600Z,18.18
2022-08-25T22:07:50.200Z,18.15
2022-08-25T22:10:21.186Z,18.01
2022-08-25T22:12:51.516Z,18.17
2022-08-25T22:15:20.762Z,17.98
2022-08-25T22:17:50.673Z,17.89
2022-08-25T22:20:20.118Z,17.85
2022-08-25T22:22:48.678Z,17.46
2022-08-25T22:25:17.553Z,17.92
2022-08-25T22:27:46.453Z,17.92
2022-08-25T22:30:15.214Z,17.84
2022-08-25T22:32:45.429Z,17.96
2022-08-25T22:35:15.416Z,17.87
2022-08-25T22:37:47.751Z,17.89
2022-08-25T22:40:16.579Z,17.88
2022-08-25T22:42:48.045Z,17.82
2022-08-25T22:45:17.000Z,17.78
2022-08-25T22:47:45.405Z,17.77
2022-08-25T22:50:17.289Z,17.66
2022-08-25T22:52:47.514Z,17.68
2022-08-25T22:55:16.513Z,17.55
2022-08-25T22:57:45.073Z,17.65
2022-08-25T23:00:15.332Z,17.66
2022-08-25T23:02:45.552Z,17.65
2022-08-25T23:05:16.426Z,17.61
2022-08-25T23:07:45.094Z,17.09
2022-08-25T23:10:14.943Z,17.56
2022-08-25T23:12:44.025Z,17.51
2022-08-25T23:15:13.375Z,17.62
2022-08-25T23:17:42.858Z,17.62
2022-08-25T23:20:25.815Z,17.63
2022-08-25T23:22:56.342Z,17.61
2022-08-25T23:25:26.127Z,17.56
2022-08-25T23:27:54.935Z,17.44
2022-08-25T23:30:27.212Z,17.52
2022-08-25T23:32:56.436Z,17.45
2022-08-25T23:35:24.803Z,17.48
2022-08-25T23:37:53.469Z,17.46
2022-08-25T23:40:23.738Z,17.42
2022-08-25T23:42:52.275Z,17.35
2022-08-25T23:45:21.109Z,17.42
2022-08-25T23:47:50.000Z,17.39
2022-08-25T23:50:19.042Z,17.37
2022-08-25T23:52:48.073Z,17.35
2022-08-25T23:55:16.717Z,17.30
2022-08-25T23:57:46.706Z,17.32
